Aviation Digital Data Service (ADDS)

Output produced by METARs form (1733 UTC 16 June 2019)
found at http://www.aviationweather.gov/metar/data/
 
LMML 161715Z 10004KT CAVOK 30/14 Q1013 NOSIG RMK SMOKE TO SW
TAF LMML 161700Z 1618/1718 VRB06KT CAVOK